Etusivu
METAR-TAF:

METAR-TAF

Lentoasemat :

Sogndal, Norja

Leveyspiiri: 61-09N, Pituuspiiri: 007-08E, korkeus merenpinnasta: 49 m

Tämänhetkinen sää

Tämä raportti tehtiin 1 tunti ja 9 minuuttia sitten, kello 13.50 UTC
Tuuli 5 kn idästä/koillisesta
Lämpötila -7°C
Kosteus 100%
Ilmanpaine 981 hPa
Näkyvyys: 6000 m
Muutamia pilviä 300 ft:n korkeudessa
heikkoa lumisadetta

METAR: ENSG 131350Z 07005KT 6000 -SN FEW003 VV015 M07/M07 Q0981 RMK WIND 3806FT 10014KT

Aika: 15:59 (14:59 UTC)


TAF: puuttuu

Säähavainnot ja -ennusteet yli 4000 lentoasemalta (METAR- ja TAF-raportit).

Käytössä olevat sääasemat on merkitty karttaan keltaisilla ja punaisilla pisteillä.

Aseta hiiri pisteen päälle nähdäksesi sääaseman nimen.

Klikkaa sitten nähdäksesi säähavainnot ja -ennusteet.

Kartan vaihtaminen: klikkaa mustalla rastilla varustettuja vihreitä pisteitä, niin voit zoomata sisään; viivalla varustettua vihreää pistettä, niin voit zoomata ulos tai vihreitä nuolia, niin pääset viereisille kartoille.


METAR-TAF: